Terminal Aerodrome Forecast
Issued by NWS Detroit/Pontiac, MI

Home | Current Version | Previous Version | Text Only | Print | Product List | Glossary On
Versions: 1 2 3 4 5 6 7 8 9 10 11 12 13 14 15 16 17 18 19 20 21 22 23 24 25 26 27 28
000
FTUS43 KDTX 010306 AAA
TAFDTW
TAF AMD
KDTW 010306Z 0103/0206 22008KT P6SM SCT025 OVC040
      TEMPO 0103/0106 BKN025
     FM010600 23005KT P6SM OVC025
     FM010800 VRB03KT 2SM -SN OVC015
     FM011400 03010KT 1SM -SN OVC010
     FM012000 03014KT 3/4SM -SN OVC008
     FM020200 02018KT 3/4SM -SN OVC006=

USA.gov is the U.S. government's official web portal to all federal, state and local government web resources and services.